Yellowstone National Park, WY (82190)

02:37 PM MDT die 22o May, anno 2015 (GMT -0600)
RAWS | | Change Station
CLOSE
Current Station
Personal Weather Stations
Location: Yellowstone National Park, WY
Elevation: 7899 ft
Nearby Weather Stations

Elev 7899 ft 44.72 °N, 110.51 °W | Updated 48 minutes ago

Pluvia
Pluvia
48 °F
Feels Like 45 °F
N
6
Ventus Variabilis Ventus from Aquilo
Gusts 14.0 mph

Hodie
High -- | Low -- °F
--% Chance of Precip.
Yesterday
High -- | Low -- °F
Precip. -- in
5:46 AM 8:51 PM
Waxing Crescent, 24% visible
Pressio 29.98 in
Visibilitas 10.0 milia passuum
Clouds Plerumque Nubila 5000 ft
Frigus Venti 45 °F
Frigus in quo Ros apparet 39 °F
Umor 72%
Rainfall in
Snow Depth Not available.
UV 6 out of 12
Pollen 8.20 out of 12
Air Quality Not available.
Flu Activity Sporadic
METAR KWYS 222010Z AUTO 06010G15KT 10SM BKN050 11/04 A2998 RMK AO2

More Conditions Fewer Conditions

Pressio 29.98 in
Visibilitas 10.0 milia passuum
Clouds Plerumque Nubila 5000 ft
Frigus Venti 45 °F
Frigus in quo Ros apparet 39 °F
Umor 72%
Rainfall in
Snow Depth Not available.
UV 6 out of 12
Pollen 8.20 out of 12
Air Quality Not available.
Flu Activity Sporadic
METAR KWYS 222010Z AUTO 06010G15KT 10SM BKN050 11/04 A2998 RMK AO2

More Conditions Fewer Conditions

10-Day Weather Forecast

Almanac

Astronomy

May. 22, 2015 Rise Set
Actual Time
Civil Twilight
Nautical Twilight
Astronomical Twilight
Moon
Length Of Visible Light
Length of Day
Tomorrow will be .
, % of the Moon is Illuminated

Today's Extremes

State Highs State Lows

Community

WunderPhotos

Upload Photos

1,823,288 photos uploaded!

WunderBlogs® & News

Nearby

Air Quality

  Air Quality AQ Index Pollutant
Not available.

Snow Depth

Station Depth Elevation

Earthquake Activity

City Distance Mag. Time & Date
Minimum magnitude displayed is 2.5.

Coastal Water Temperatures

Locus Calor

Stations

Nearby Weather Stations

Station Location Temp Frigus Venti Frigus in quo Ros apparet Umor Ventus Precip. Elev Renovata Type